createdAt,value
2018-04-13T00:00:05.232Z,113.60
2018-04-13T00:01:05.240Z,123.10
2018-04-13T00:02:05.197Z,108.70
2018-04-13T00:03:05.207Z,115.70
2018-04-13T00:04:05.221Z,118.50
2018-04-13T00:05:05.184Z,118.10
2018-04-13T00:06:05.131Z,111.60
2018-04-13T00:07:05.112Z,120.40
2018-04-13T00:08:05.096Z,113.70
2018-04-13T00:09:05.125Z,121.10
2018-04-13T00:10:05.091Z,111.90
2018-04-13T00:11:05.055Z,124.60
2018-04-13T00:12:05.064Z,120.80
2018-04-13T00:13:05.039Z,126.20
2018-04-13T00:14:05.037Z,131.60
2018-04-13T00:15:05.042Z,129.10
2018-04-13T00:16:04.978Z,122.70
2018-04-13T00:17:04.977Z,126.10
2018-04-13T00:18:04.990Z,128.30
2018-04-13T00:19:04.942Z,133.10
2018-04-13T00:20:04.957Z,129.70
2018-04-13T00:21:04.905Z,122.90
2018-04-13T00:22:04.925Z,127.10
2018-04-13T00:23:04.874Z,126.50
2018-04-13T00:24:04.878Z,122.30
2018-04-13T00:25:04.840Z,119.10
2018-04-13T00:26:04.825Z,129.00
2018-04-13T00:27:04.813Z,120.10
2018-04-13T00:28:04.818Z,126.90
2018-04-13T00:29:04.830Z,128.00
2018-04-13T00:30:04.768Z,126.40
2018-04-13T00:31:04.766Z,127.10
2018-04-13T00:32:04.744Z,123.30
2018-04-13T00:33:04.733Z,117.00
2018-04-13T00:34:04.707Z,116.10
2018-04-13T00:35:04.695Z,119.00
2018-04-13T00:36:04.706Z,119.60
2018-04-13T00:37:04.669Z,129.00
2018-04-13T00:38:04.649Z,116.30
2018-04-13T00:39:04.637Z,132.40
2018-04-13T00:40:04.617Z,128.60
2018-04-13T00:41:04.610Z,126.40
2018-04-13T00:42:04.603Z,125.70
2018-04-13T00:43:04.612Z,128.70
2018-04-13T00:44:04.565Z,122.00
2018-04-13T00:45:04.586Z,123.60
2018-04-13T00:46:04.537Z,126.90
2018-04-13T00:47:04.538Z,122.10
2018-04-13T00:48:04.513Z,129.10
2018-04-13T00:49:04.497Z,135.50
2018-04-13T00:50:04.465Z,128.00
2018-04-13T00:51:04.468Z,131.80
2018-04-13T00:52:04.446Z,122.30
2018-04-13T00:53:04.415Z,122.90
2018-04-13T00:54:04.428Z,123.20
2018-04-13T00:55:04.391Z,128.10
2018-04-13T00:56:04.391Z,123.80
2018-04-13T00:57:04.369Z,129.50
2018-04-13T00:58:04.352Z,128.90
2018-04-13T00:59:04.382Z,117.90
2018-04-13T01:00:04.317Z,129.10
2018-04-13T01:01:04.321Z,131.00
2018-04-13T01:02:04.316Z,121.20
2018-04-13T01:03:04.266Z,125.30
2018-04-13T01:04:04.261Z,124.50
2018-04-13T01:05:04.262Z,123.80
2018-04-13T01:06:04.225Z,126.00
2018-04-13T01:07:04.229Z,125.50
2018-04-13T01:08:04.185Z,131.00
2018-04-13T01:09:04.179Z,131.90
2018-04-13T01:10:04.187Z,127.90
2018-04-13T01:11:04.161Z,127.70
2018-04-13T01:12:04.131Z,125.00
2018-04-13T01:13:04.116Z,136.40
2018-04-13T01:14:04.098Z,127.10
2018-04-13T01:15:04.084Z,129.00
2018-04-13T01:16:04.092Z,141.50
2018-04-13T01:17:04.056Z,147.90
2018-04-13T01:18:04.064Z,135.30
2018-04-13T01:19:04.028Z,132.50
2018-04-13T01:20:04.014Z,126.90
2018-04-13T01:21:03.985Z,125.40
2018-04-13T01:22:03.969Z,128.10
2018-04-13T01:23:03.955Z,122.10
2018-04-13T01:24:03.969Z,124.20
2018-04-13T01:25:03.953Z,122.90
2018-04-13T01:26:03.917Z,120.20
2018-04-13T01:27:03.898Z,129.10
2018-04-13T01:28:03.959Z,126.90
2018-04-13T01:29:03.862Z,127.80
2018-04-13T01:30:03.882Z,124.30
2018-04-13T01:31:04.582Z,127.20
2018-04-13T01:32:03.824Z,120.50
2018-04-13T01:33:03.831Z,130.90
2018-04-13T01:34:03.808Z,135.80
2018-04-13T01:35:03.772Z,137.30
2018-04-13T01:36:03.777Z,133.70
2018-04-13T01:37:03.803Z,122.80
2018-04-13T01:38:03.813Z,130.80
2018-04-13T01:39:03.739Z,125.80
2018-04-13T01:40:03.695Z,129.00
2018-04-13T01:41:03.689Z,129.30
2018-04-13T01:42:04.597Z,124.90
2018-04-13T01:43:03.684Z,126.60
2018-04-13T01:44:03.642Z,125.20
2018-04-13T01:45:03.618Z,126.20
2018-04-13T01:46:03.619Z,130.80
2018-04-13T01:47:03.621Z,124.00
2018-04-13T01:48:03.578Z,134.90
2018-04-13T01:49:03.588Z,124.20
2018-04-13T01:50:03.541Z,122.90
2018-04-13T01:51:03.538Z,117.40
2018-04-13T01:52:03.516Z,129.80
2018-04-13T01:53:03.495Z,130.30
2018-04-13T01:54:03.488Z,126.80
2018-04-13T01:55:03.464Z,123.00
2018-04-13T01:56:03.514Z,123.10
2018-04-13T01:57:03.454Z,122.70
2018-04-13T01:58:03.577Z,130.90
2018-04-13T01:59:03.416Z,124.90
2018-04-13T02:00:03.393Z,128.50
2018-04-13T02:01:03.379Z,125.90
2018-04-13T02:02:03.364Z,127.00
2018-04-13T02:03:03.348Z,123.00
2018-04-13T02:04:03.341Z,131.00
2018-04-13T02:05:03.324Z,125.50
2018-04-13T02:06:03.293Z,124.60
2018-04-13T02:07:03.282Z,127.60
2018-04-13T02:08:03.264Z,129.60
2018-04-13T02:09:03.269Z,135.10
2018-04-13T02:10:03.236Z,137.80
2018-04-13T02:11:03.216Z,135.40
2018-04-13T02:12:03.213Z,127.30
2018-04-13T02:13:03.240Z,124.50
2018-04-13T02:14:03.193Z,127.30
2018-04-13T02:15:03.160Z,129.60
2018-04-13T02:16:03.143Z,129.70
2018-04-13T02:17:03.129Z,133.00
2018-04-13T02:18:03.115Z,130.90
2018-04-13T02:19:03.097Z,141.00
2018-04-13T02:20:03.104Z,135.30
2018-04-13T02:21:03.074Z,134.70
2018-04-13T02:22:03.053Z,140.70
2018-04-13T02:23:03.044Z,136.60
2018-04-13T02:24:03.028Z,140.90
2018-04-13T02:25:03.028Z,133.00
2018-04-13T02:26:03.000Z,136.10
2018-04-13T02:27:02.976Z,137.70
2018-04-13T02:28:02.952Z,141.60
2018-04-13T02:29:02.940Z,131.10
2018-04-13T02:30:02.934Z,138.90
2018-04-13T02:31:02.929Z,138.40
2018-04-13T02:32:02.904Z,138.20
2018-04-13T02:33:02.881Z,137.00
2018-04-13T02:34:02.859Z,141.00
2018-04-13T02:35:02.845Z,139.50
2018-04-13T02:36:02.842Z,136.50
2018-04-13T02:37:02.820Z,137.50
2018-04-13T02:38:02.809Z,141.20
2018-04-13T02:39:02.781Z,134.90
2018-04-13T02:40:02.778Z,144.10
2018-04-13T02:41:02.757Z,148.50
2018-04-13T02:42:02.776Z,146.20
2018-04-13T02:43:02.724Z,147.20
2018-04-13T02:44:02.708Z,141.10
2018-04-13T02:45:02.706Z,142.30
2018-04-13T02:46:02.710Z,138.80
2018-04-13T02:47:02.656Z,148.00
2018-04-13T02:48:02.642Z,146.70
2018-04-13T02:49:02.632Z,147.50
2018-04-13T02:50:02.669Z,154.30
2018-04-13T02:51:02.596Z,151.50
2018-04-13T02:52:02.576Z,142.70
2018-04-13T02:53:02.565Z,146.50
2018-04-13T02:54:02.545Z,145.20
2018-04-13T02:55:02.542Z,142.20
2018-04-13T02:56:02.518Z,143.60
2018-04-13T02:57:02.533Z,147.50
2018-04-13T02:58:02.495Z,145.60
2018-04-13T02:59:02.478Z,150.60
2018-04-13T03:00:02.450Z,135.40
2018-04-13T03:01:02.433Z,144.40
2018-04-13T03:02:02.419Z,136.80
2018-04-13T03:03:02.413Z,144.90
2018-04-13T03:04:02.391Z,144.00
2018-04-13T03:05:02.383Z,139.10
2018-04-13T03:06:02.355Z,137.50
2018-04-13T03:07:02.348Z,138.10
2018-04-13T03:08:02.345Z,128.10
2018-04-13T03:09:02.331Z,134.00
2018-04-13T03:10:02.295Z,128.40
2018-04-13T03:11:02.277Z,130.80
2018-04-13T03:12:02.269Z,133.50
2018-04-13T03:13:02.273Z,128.30
2018-04-13T03:14:02.232Z,131.00
2018-04-13T03:15:02.212Z,138.80
2018-04-13T03:16:02.200Z,130.00
2018-04-13T03:17:02.197Z,130.70
2018-04-13T03:18:02.167Z,132.70
2018-04-13T03:19:02.148Z,139.50
2018-04-13T03:20:02.140Z,149.60
2018-04-13T03:21:02.126Z,149.10
2018-04-13T03:22:02.108Z,140.20
2018-04-13T03:23:02.094Z,145.10
2018-04-13T03:24:02.072Z,138.50
2018-04-13T03:25:02.054Z,142.80
2018-04-13T03:26:02.054Z,132.10
2018-04-13T03:27:02.022Z,136.50
2018-04-13T03:28:02.006Z,138.70
2018-04-13T03:29:01.994Z,136.50
2018-04-13T03:30:01.980Z,138.90
2018-04-13T03:31:01.982Z,135.80
2018-04-13T03:32:01.946Z,134.20
2018-04-13T03:33:01.938Z,131.70
2018-04-13T03:34:01.912Z,148.10
2018-04-13T03:35:01.925Z,144.40
2018-04-13T03:36:01.890Z,133.80
2018-04-13T03:37:01.862Z,143.80
2018-04-13T03:38:01.867Z,145.60
2018-04-13T03:39:01.855Z,143.50
2018-04-13T03:40:01.822Z,150.60
2018-04-13T03:41:01.819Z,145.90
2018-04-13T03:42:01.784Z,140.90
2018-04-13T03:43:01.775Z,140.50
2018-04-13T03:44:01.761Z,137.20
2018-04-13T03:45:01.774Z,138.70
2018-04-13T03:46:01.774Z,135.30
2018-04-13T03:47:01.726Z,133.50
2018-04-13T03:48:01.697Z,136.70
2018-04-13T03:49:01.707Z,135.80
2018-04-13T03:50:01.661Z,124.90
2018-04-13T03:51:01.646Z,132.80
2018-04-13T03:52:01.637Z,133.60
2018-04-13T03:53:01.624Z,128.70
2018-04-13T03:54:01.619Z,130.60
2018-04-13T03:55:01.582Z,131.80
2018-04-13T03:56:01.580Z,132.10
2018-04-13T03:57:01.550Z,131.60
2018-04-13T03:58:01.558Z,139.20
2018-04-13T03:59:01.520Z,139.70
2018-04-13T04:00:01.496Z,134.00
2018-04-13T04:01:01.498Z,131.90
2018-04-13T04:02:01.482Z,133.60
2018-04-13T04:03:01.455Z,147.50
2018-04-13T04:04:01.433Z,148.10
2018-04-13T04:05:01.453Z,138.20
2018-04-13T04:06:01.444Z,136.70
2018-04-13T04:07:01.396Z,149.40
2018-04-13T04:08:01.373Z,142.40
2018-04-13T04:09:01.367Z,140.10
2018-04-13T04:10:01.346Z,150.80
2018-04-13T04:11:01.342Z,137.50
2018-04-13T04:12:01.328Z,141.10
2018-04-13T04:13:01.348Z,143.10
2018-04-13T04:14:01.280Z,142.10
2018-04-13T04:15:01.269Z,141.70
2018-04-13T04:16:01.292Z,138.20
2018-04-13T04:17:01.291Z,133.80
2018-04-13T04:18:01.237Z,138.30
2018-04-13T04:19:01.264Z,134.30
2018-04-13T04:20:01.191Z,136.50
2018-04-13T04:21:01.181Z,136.70
2018-04-13T04:22:01.252Z,142.80
2018-04-13T04:23:01.142Z,140.70
2018-04-13T04:24:01.137Z,140.00
2018-04-13T04:25:01.135Z,141.70
2018-04-13T04:26:01.153Z,136.20
2018-04-13T04:27:01.089Z,130.50
2018-04-13T04:28:01.052Z,133.80
2018-04-13T04:29:01.061Z,130.90
2018-04-13T04:30:01.031Z,133.10
2018-04-13T04:31:01.003Z,127.00
2018-04-13T04:32:00.998Z,136.50
2018-04-13T04:33:00.978Z,133.70
2018-04-13T04:34:00.972Z,132.40
2018-04-13T04:35:00.942Z,150.20
2018-04-13T04:36:00.937Z,137.30
2018-04-13T04:37:00.917Z,136.40
2018-04-13T04:38:00.951Z,140.90
2018-04-13T04:39:00.874Z,146.20
2018-04-13T04:40:00.940Z,146.40
2018-04-13T04:41:00.851Z,139.30
2018-04-13T04:42:00.841Z,142.40
2018-04-13T04:43:00.831Z,148.10
2018-04-13T04:44:00.829Z,145.40
2018-04-13T04:45:00.789Z,146.00
2018-04-13T04:46:00.886Z,137.20
2018-04-13T04:47:00.784Z,150.60
2018-04-13T04:48:00.742Z,149.60
2018-04-13T04:49:00.739Z,147.10
2018-04-13T04:50:00.715Z,146.20
2018-04-13T04:51:00.703Z,148.20
2018-04-13T04:52:00.699Z,147.60
2018-04-13T04:53:00.725Z,146.80
2018-04-13T04:54:00.645Z,145.50
2018-04-13T04:55:00.651Z,156.60
2018-04-13T04:56:00.635Z,153.30
2018-04-13T04:57:00.617Z,143.60
2018-04-13T04:58:00.586Z,147.00
2018-04-13T04:59:00.576Z,141.90
2018-04-13T05:00:00.548Z,151.70
2018-04-13T05:01:00.544Z,154.50
2018-04-13T05:02:00.565Z,144.10
2018-04-13T05:03:00.505Z,144.70
2018-04-13T05:04:00.492Z,147.10
2018-04-13T05:05:00.506Z,148.60
2018-04-13T05:06:00.472Z,155.00
2018-04-13T05:07:00.461Z,158.00
2018-04-13T05:08:00.432Z,153.50
2018-04-13T05:09:00.425Z,153.60
2018-04-13T05:10:00.410Z,150.50
2018-04-13T05:11:00.397Z,152.50
2018-04-13T05:12:00.395Z,153.50
2018-04-13T05:13:00.380Z,161.70
2018-04-13T05:14:00.324Z,154.60
2018-04-13T05:15:00.328Z,152.60
2018-04-13T05:16:00.291Z,152.70
2018-04-13T05:17:00.271Z,152.70
2018-04-13T05:18:00.264Z,154.90
2018-04-13T05:19:00.282Z,152.70
2018-04-13T05:20:00.249Z,157.90
2018-04-13T05:21:00.230Z,159.00
2018-04-13T05:22:00.258Z,156.40
2018-04-13T05:23:00.200Z,173.60
2018-04-13T05:24:00.199Z,163.40
2018-04-13T05:25:00.150Z,164.80
2018-04-13T05:26:00.174Z,156.30
2018-04-13T05:27:00.126Z,168.00
2018-04-13T05:28:00.139Z,159.40
2018-04-13T05:29:00.089Z,164.50
2018-04-13T05:30:00.072Z,161.10
2018-04-13T05:31:00.052Z,163.50
2018-04-13T05:32:00.049Z,158.50
2018-04-13T05:33:00.050Z,159.10
2018-04-13T05:34:00.036Z,161.10
2018-04-13T05:35:00.009Z,162.20
2018-04-13T05:35:59.982Z,164.90
2018-04-13T05:36:59.979Z,160.30
2018-04-13T05:37:59.960Z,161.90
2018-04-13T05:38:59.930Z,165.80
2018-04-13T05:39:59.926Z,163.00
2018-04-13T05:40:59.916Z,162.70
2018-04-13T05:41:59.907Z,168.70
2018-04-13T05:42:59.884Z,170.90
2018-04-13T05:43:59.852Z,167.00
2018-04-13T05:44:59.838Z,162.00
2018-04-13T05:45:59.861Z,164.80
2018-04-13T05:46:59.795Z,171.70
2018-04-13T05:47:59.804Z,161.10
2018-04-13T05:48:59.771Z,160.10
2018-04-13T05:49:59.833Z,164.30
2018-04-13T05:50:59.759Z,158.90
2018-04-13T05:51:59.752Z,169.60
2018-04-13T05:52:59.738Z,167.70
2018-04-13T05:53:59.741Z,159.90
2018-04-13T05:54:59.697Z,156.70
2018-04-13T05:55:59.724Z,157.90
2018-04-13T05:56:59.670Z,149.70
2018-04-13T05:57:59.629Z,151.20
2018-04-13T05:58:59.629Z,147.00
2018-04-13T05:59:59.617Z,141.50
2018-04-13T06:00:59.582Z,151.90
2018-04-13T06:01:59.589Z,156.60
2018-04-13T06:02:59.561Z,145.20
2018-04-13T06:03:59.536Z,142.10
2018-04-13T06:04:59.558Z,140.50
2018-04-13T06:05:59.551Z,145.90
2018-04-13T06:06:59.519Z,143.40
2018-04-13T06:07:59.488Z,139.50
2018-04-13T06:08:59.504Z,142.40
2018-04-13T06:09:59.477Z,135.90
2018-04-13T06:10:59.426Z,140.80
2018-04-13T06:11:59.459Z,139.80
2018-04-13T06:13:02.425Z,144.40
2018-04-13T06:13:59.379Z,137.30
2018-04-13T06:14:59.392Z,131.30
2018-04-13T06:15:59.361Z,137.30
2018-04-13T06:16:59.337Z,135.60
2018-04-13T06:17:59.360Z,144.10
2018-04-13T06:18:59.302Z,141.60
2018-04-13T06:19:59.291Z,135.80
2018-04-13T06:20:59.292Z,130.00
2018-04-13T06:21:59.271Z,134.80
2018-04-13T06:22:59.246Z,136.60
2018-04-13T06:23:59.236Z,128.50
2018-04-13T06:24:59.239Z,131.00
2018-04-13T06:25:59.231Z,132.60
2018-04-13T06:26:59.231Z,130.20
2018-04-13T06:27:59.197Z,135.30
2018-04-13T06:28:59.156Z,134.80
2018-04-13T06:29:59.182Z,129.40
2018-04-13T06:30:59.134Z,129.90
2018-04-13T06:31:59.226Z,127.90
2018-04-13T06:32:59.137Z,136.10
2018-04-13T06:33:59.142Z,123.10
2018-04-13T06:34:59.061Z,127.90
2018-04-13T06:35:59.064Z,120.00
2018-04-13T06:36:59.048Z,121.00
2018-04-13T06:37:59.063Z,119.20
2018-04-13T06:38:59.005Z,115.80
2018-04-13T06:39:58.996Z,120.70
2018-04-13T06:40:59.010Z,117.00
2018-04-13T06:41:58.991Z,118.60
2018-04-13T06:42:58.992Z,111.60
2018-04-13T06:43:58.963Z,114.70
2018-04-13T06:44:58.928Z,117.70
2018-04-13T06:45:58.919Z,118.30
2018-04-13T06:46:58.920Z,120.70
2018-04-13T06:47:58.904Z,116.80
2018-04-13T06:48:58.908Z,115.50
2018-04-13T06:49:58.863Z,116.30
2018-04-13T06:50:58.845Z,122.00
2018-04-13T06:51:58.830Z,114.20
2018-04-13T06:52:58.821Z,115.70
2018-04-13T06:53:58.798Z,118.60
2018-04-13T06:54:58.790Z,112.90
2018-04-13T06:55:58.762Z,113.70
2018-04-13T06:56:58.766Z,111.50
2018-04-13T06:57:58.733Z,115.70
2018-04-13T06:58:58.722Z,119.60
2018-04-13T06:59:58.771Z,116.70
2018-04-13T07:00:58.720Z,110.50
2018-04-13T07:01:58.683Z,114.90
2018-04-13T07:02:58.666Z,111.30
2018-04-13T07:03:58.678Z,117.80
2018-04-13T07:04:58.647Z,113.50
2018-04-13T07:05:58.623Z,113.60
2018-04-13T07:06:58.611Z,111.90
2018-04-13T07:07:58.634Z,107.80
2018-04-13T07:08:58.592Z,116.10
2018-04-13T07:09:58.633Z,107.20
2018-04-13T07:10:58.591Z,108.70
2018-04-13T07:11:58.538Z,101.30
2018-04-13T07:12:58.559Z,109.40
2018-04-13T07:13:58.556Z,103.70
2018-04-13T07:14:58.497Z,101.80
2018-04-13T07:15:58.489Z,100.60
2018-04-13T07:16:58.488Z,102.40
2018-04-13T07:17:58.486Z,100.50
2018-04-13T07:18:58.468Z,100.00
2018-04-13T07:19:58.429Z,101.60
2018-04-13T07:20:58.447Z,104.40
2018-04-13T07:21:58.413Z,98.40
2018-04-13T07:22:58.376Z,96.30
2018-04-13T07:23:58.412Z,96.40
2018-04-13T07:24:58.384Z,90.50
2018-04-13T07:25:58.340Z,95.70
2018-04-13T07:26:58.339Z,94.50
2018-04-13T07:27:58.340Z,98.30
2018-04-13T07:28:58.324Z,99.40
2018-04-13T07:29:58.332Z,96.50
2018-04-13T07:30:58.303Z,92.70
2018-04-13T07:31:58.660Z,95.40
2018-04-13T07:32:58.247Z,99.10
2018-04-13T07:33:58.272Z,95.20
2018-04-13T07:34:58.239Z,93.10
2018-04-13T07:35:58.270Z,100.30
2018-04-13T07:36:58.202Z,98.10
2018-04-13T07:37:58.226Z,103.70
2018-04-13T07:38:58.196Z,96.80
2018-04-13T07:39:58.183Z,104.50
2018-04-13T07:40:58.127Z,98.30
2018-04-13T07:41:58.175Z,96.10
2018-04-13T07:42:58.124Z,103.50
2018-04-13T07:43:58.106Z,99.60
2018-04-13T07:44:58.113Z,100.90
2018-04-13T07:45:58.105Z,102.10
2018-04-13T07:46:58.085Z,97.80
2018-04-13T07:47:58.080Z,98.50
2018-04-13T07:48:58.048Z,103.90
2018-04-13T07:49:58.037Z,105.50
2018-04-13T07:50:58.175Z,103.60
2018-04-13T07:51:58.010Z,100.00
2018-04-13T07:52:58.049Z,95.60
2018-04-13T07:53:57.999Z,103.70
2018-04-13T07:54:57.962Z,104.70
2018-04-13T07:55:57.989Z,102.80
2018-04-13T07:56:58.031Z,100.60
2018-04-13T07:57:57.917Z,100.90
2018-04-13T07:58:57.905Z,103.70
2018-04-13T07:59:57.939Z,99.80
2018-04-13T08:00:57.888Z,100.10
2018-04-13T08:01:57.875Z,96.70
2018-04-13T08:02:58.022Z,100.50
2018-04-13T08:03:57.849Z,99.90
2018-04-13T08:04:57.875Z,96.00
2018-04-13T08:05:57.799Z,100.50
2018-04-13T08:06:57.839Z,99.90
2018-04-13T08:07:57.805Z,97.20
2018-04-13T08:08:57.787Z,99.80
2018-04-13T08:09:57.781Z,96.70
2018-04-13T08:10:57.772Z,97.10
2018-04-13T08:11:57.710Z,99.70
2018-04-13T08:13:00.737Z,101.50
2018-04-13T08:13:57.693Z,99.40
2018-04-13T08:14:57.698Z,98.00
2018-04-13T08:15:57.690Z,101.30
2018-04-13T08:16:57.733Z,101.30
2018-04-13T08:17:57.666Z,99.30
2018-04-13T08:18:57.637Z,103.00
2018-04-13T08:19:57.664Z,102.60
2018-04-13T08:20:57.620Z,94.50
2018-04-13T08:21:57.596Z,99.80
2018-04-13T08:22:57.593Z,99.20
2018-04-13T08:23:57.625Z,100.10
2018-04-13T08:24:57.553Z,100.20
2018-04-13T08:25:57.551Z,97.80
2018-04-13T08:26:57.539Z,98.50
2018-04-13T08:27:57.607Z,95.50
2018-04-13T08:28:57.538Z,92.60
2018-04-13T08:29:57.493Z,94.90
2018-04-13T08:30:57.501Z,98.30
2018-04-13T08:31:57.498Z,92.80
2018-04-13T08:32:57.462Z,92.90
2018-04-13T08:33:57.464Z,96.10
2018-04-13T08:34:57.435Z,97.60
2018-04-13T08:35:57.440Z,94.20
2018-04-13T08:36:57.397Z,93.40
2018-04-13T08:37:57.380Z,94.00
2018-04-13T08:38:57.387Z,96.60
2018-04-13T08:39:57.366Z,94.00
2018-04-13T08:40:57.354Z,99.00
2018-04-13T08:41:57.399Z,97.00
2018-04-13T08:42:57.373Z,92.70
2018-04-13T08:43:57.351Z,98.20
2018-04-13T08:44:57.288Z,92.40
2018-04-13T08:45:57.314Z,95.00
2018-04-13T08:46:57.275Z,95.00
2018-04-13T08:47:57.261Z,96.60
2018-04-13T08:48:57.365Z,98.10
2018-04-13T08:49:57.260Z,93.40
2018-04-13T08:50:57.527Z,91.70
2018-04-13T08:51:57.222Z,91.90
2018-04-13T08:52:57.248Z,96.50
2018-04-13T08:53:57.247Z,97.30
2018-04-13T08:54:57.215Z,90.80
2018-04-13T08:55:57.171Z,89.10
2018-04-13T08:56:57.181Z,88.80
2018-04-13T08:57:57.238Z,90.90
2018-04-13T08:58:57.134Z,89.00
2018-04-13T08:59:57.153Z,90.80
2018-04-13T09:00:57.115Z,86.20
2018-04-13T09:01:57.123Z,84.20
2018-04-13T09:02:57.140Z,87.50
2018-04-13T09:03:57.084Z,83.60
2018-04-13T09:04:57.043Z,82.80
2018-04-13T09:05:57.028Z,83.30
2018-04-13T09:06:57.069Z,82.80
2018-04-13T09:07:56.997Z,80.60
2018-04-13T09:08:57.059Z,81.70
2018-04-13T09:09:57.171Z,81.20
2018-04-13T09:10:56.973Z,69.60
2018-04-13T09:11:57.059Z,73.90
2018-04-13T09:12:57.333Z,72.40
2018-04-13T09:13:56.982Z,71.90
2018-04-13T09:14:56.934Z,70.00
2018-04-13T09:15:56.922Z,67.70
2018-04-13T09:16:56.898Z,59.10
2018-04-13T09:17:56.935Z,59.10
2018-04-13T09:18:56.947Z,58.50
2018-04-13T09:19:56.860Z,57.70
2018-04-13T09:20:56.874Z,60.40
2018-04-13T09:21:56.817Z,60.70
2018-04-13T09:22:56.831Z,57.90
2018-04-13T09:23:56.830Z,53.80
2018-04-13T09:24:56.835Z,53.60
2018-04-13T09:25:56.791Z,55.10
2018-04-13T09:26:56.799Z,55.10
2018-04-13T09:27:56.840Z,53.00
2018-04-13T09:28:56.794Z,54.80
2018-04-13T09:29:56.749Z,52.30
2018-04-13T09:30:56.724Z,54.40
2018-04-13T09:31:56.742Z,53.70
2018-04-13T09:32:56.723Z,54.40
2018-04-13T09:33:56.687Z,52.70
2018-04-13T09:34:56.667Z,48.70
2018-04-13T09:35:56.656Z,49.60
2018-04-13T09:36:56.667Z,46.20
2018-04-13T09:37:56.652Z,48.60
2018-04-13T09:38:56.625Z,46.70
2018-04-13T09:39:56.636Z,45.20
2018-04-13T09:40:56.751Z,48.20
2018-04-13T09:41:56.623Z,48.10
2018-04-13T09:42:56.608Z,51.30
2018-04-13T09:43:56.599Z,48.70
2018-04-13T09:44:56.571Z,47.40
2018-04-13T09:45:56.538Z,43.00
2018-04-13T09:46:56.621Z,48.30
2018-04-13T09:47:56.508Z,46.20
2018-04-13T09:48:56.592Z,43.90
2018-04-13T09:49:56.512Z,46.80
2018-04-13T09:50:56.547Z,47.20
2018-04-13T09:51:56.492Z,43.30
2018-04-13T09:52:56.494Z,43.80
2018-04-13T09:53:56.448Z,47.50
2018-04-13T09:54:56.451Z,42.90
2018-04-13T09:55:56.422Z,40.60
2018-04-13T09:56:56.418Z,41.50
2018-04-13T09:57:56.416Z,39.20
2018-04-13T09:58:56.388Z,38.80
2018-04-13T09:59:56.402Z,39.50
2018-04-13T10:00:56.383Z,40.60
2018-04-13T10:01:56.427Z,40.30
2018-04-13T10:02:56.358Z,41.70
2018-04-13T10:03:56.386Z,38.60
2018-04-13T10:04:56.512Z,40.80
2018-04-13T10:05:56.373Z,37.40
2018-04-13T10:06:56.327Z,38.10
2018-04-13T10:07:56.333Z,39.00
2018-04-13T10:08:56.323Z,40.90
2018-04-13T10:09:56.373Z,37.30
2018-04-13T10:10:56.262Z,37.90
2018-04-13T10:11:56.282Z,38.60
2018-04-13T10:12:56.255Z,36.80
2018-04-13T10:13:56.229Z,37.50
2018-04-13T10:14:56.226Z,33.70
2018-04-13T10:15:56.262Z,38.80
2018-04-13T10:16:56.289Z,38.30
2018-04-13T10:17:56.187Z,36.00
2018-04-13T10:18:56.188Z,37.10
2018-04-13T10:19:56.178Z,36.00
2018-04-13T10:20:56.142Z,40.10
2018-04-13T10:21:56.161Z,38.50
2018-04-13T10:22:56.127Z,39.10
2018-04-13T10:23:56.195Z,37.20
2018-04-13T10:24:56.139Z,34.50
2018-04-13T10:25:56.081Z,37.90
2018-04-13T10:26:56.169Z,38.30
2018-04-13T10:27:56.166Z,34.50
2018-04-13T10:28:56.107Z,39.60
2018-04-13T10:29:56.085Z,36.30
2018-04-13T10:30:56.081Z,41.20
2018-04-13T10:31:56.066Z,36.30
2018-04-13T10:32:56.087Z,36.00
2018-04-13T10:33:56.011Z,34.30
2018-04-13T10:34:55.991Z,36.80
2018-04-13T10:35:56.006Z,33.40
2018-04-13T10:36:55.978Z,38.30
2018-04-13T10:37:55.982Z,40.20
2018-04-13T10:38:55.964Z,35.70
2018-04-13T10:39:56.201Z,35.40
2018-04-13T10:40:55.996Z,37.80
2018-04-13T10:41:56.044Z,36.70
2018-04-13T10:42:55.910Z,34.30
2018-04-13T10:43:55.970Z,38.00
2018-04-13T10:44:55.892Z,33.70
2018-04-13T10:45:55.874Z,38.10
2018-04-13T10:46:55.913Z,33.80
2018-04-13T10:47:55.832Z,34.90
2018-04-13T10:48:55.984Z,34.40
2018-04-13T10:49:55.834Z,35.70
2018-04-13T10:50:55.828Z,33.00
2018-04-13T10:51:55.903Z,37.50
2018-04-13T10:52:55.813Z,35.50
2018-04-13T10:53:55.760Z,34.10
2018-04-13T10:54:55.790Z,32.70
2018-04-13T10:55:55.756Z,34.10
2018-04-13T10:56:55.790Z,30.90
2018-04-13T10:57:55.758Z,29.20
2018-04-13T10:58:55.734Z,31.80
2018-04-13T10:59:55.751Z,28.80
2018-04-13T11:00:55.843Z,26.20
2018-04-13T11:01:55.691Z,30.60
2018-04-13T11:02:55.719Z,26.80
2018-04-13T11:03:55.656Z,27.60
2018-04-13T11:04:55.658Z,26.10
2018-04-13T11:05:55.704Z,25.20
2018-04-13T11:06:55.643Z,23.40
2018-04-13T11:07:55.645Z,25.80
2018-04-13T11:08:55.646Z,26.90
2018-04-13T11:09:55.620Z,25.20
2018-04-13T11:10:55.583Z,27.10
2018-04-13T11:11:55.633Z,25.30
2018-04-13T11:12:55.672Z,25.90
2018-04-13T11:13:55.594Z,24.90
2018-04-13T11:14:55.589Z,28.40
2018-04-13T11:15:55.547Z,25.60
2018-04-13T11:16:55.530Z,26.50
2018-04-13T11:17:55.547Z,23.70
2018-04-13T11:18:55.526Z,23.10
2018-04-13T11:19:55.504Z,22.10
2018-04-13T11:20:55.486Z,21.70
2018-04-13T11:21:55.515Z,24.20
2018-04-13T11:22:55.467Z,22.90
2018-04-13T11:23:55.432Z,19.80
2018-04-13T11:24:55.445Z,25.30
2018-04-13T11:25:55.453Z,21.80
2018-04-13T11:26:55.426Z,21.30
2018-04-13T11:27:55.395Z,25.50
2018-04-13T11:28:55.396Z,23.70
2018-04-13T11:29:55.390Z,21.10
2018-04-13T11:30:55.415Z,21.60
2018-04-13T11:31:55.339Z,22.40
2018-04-13T11:32:55.368Z,20.90
2018-04-13T11:33:55.346Z,21.00
2018-04-13T11:34:55.322Z,18.90
2018-04-13T11:35:55.365Z,17.00
2018-04-13T11:36:55.323Z,20.40
2018-04-13T11:37:55.300Z,19.60
2018-04-13T11:38:55.282Z,19.60
2018-04-13T11:39:55.336Z,16.50
2018-04-13T11:40:55.263Z,17.20
2018-04-13T11:41:55.253Z,18.40
2018-04-13T11:42:55.355Z,16.90
2018-04-13T11:43:55.298Z,15.60
2018-04-13T11:44:55.204Z,18.30
2018-04-13T11:45:55.202Z,17.70
2018-04-13T11:46:55.206Z,16.70
2018-04-13T11:47:55.224Z,19.30
2018-04-13T11:48:55.219Z,16.90
2018-04-13T11:49:55.146Z,17.70
2018-04-13T11:50:55.198Z,18.00
2018-04-13T11:51:55.139Z,15.50
2018-04-13T11:52:55.118Z,18.10
2018-04-13T11:53:55.106Z,16.20
2018-04-13T11:54:55.090Z,17.80
2018-04-13T11:55:55.079Z,20.40
2018-04-13T11:56:55.060Z,20.30
2018-04-13T11:57:55.069Z,18.90
2018-04-13T11:58:55.162Z,19.30
2018-04-13T11:59:55.086Z,19.30
2018-04-13T12:00:55.028Z,19.10
2018-04-13T12:01:55.030Z,20.80
2018-04-13T12:02:55.004Z,20.50
2018-04-13T12:03:55.023Z,20.10
2018-04-13T12:04:55.003Z,20.40
2018-04-13T12:05:55.016Z,19.50
2018-04-13T12:06:55.009Z,22.40
2018-04-13T12:07:54.963Z,21.90
2018-04-13T12:08:54.937Z,20.50
2018-04-13T12:09:54.941Z,20.30
2018-04-13T12:10:54.968Z,19.00
2018-04-13T12:11:54.926Z,19.40
2018-04-13T12:12:54.942Z,22.80
2018-04-13T12:13:54.880Z,19.80
2018-04-13T12:14:54.969Z,20.70
2018-04-13T12:15:54.879Z,20.60
2018-04-13T12:16:54.889Z,18.60
2018-04-13T12:17:54.834Z,18.50
2018-04-13T12:18:54.847Z,18.80
2018-04-13T12:19:54.808Z,21.00
2018-04-13T12:20:54.828Z,25.10
2018-04-13T12:21:54.811Z,20.00
2018-04-13T12:22:54.780Z,19.30
2018-04-13T12:23:54.759Z,21.20
2018-04-13T12:24:54.754Z,21.00
2018-04-13T12:25:54.753Z,24.80
2018-04-13T12:26:54.757Z,21.10
2018-04-13T12:27:54.746Z,21.10
2018-04-13T12:28:54.687Z,25.50
2018-04-13T12:29:54.699Z,25.70
2018-04-13T12:30:54.667Z,24.70
2018-04-13T12:31:54.705Z,26.70
2018-04-13T12:32:54.682Z,22.60
2018-04-13T12:33:54.656Z,23.60
2018-04-13T12:34:54.657Z,25.40
2018-04-13T12:35:54.622Z,23.50
2018-04-13T12:36:54.617Z,31.60